createdAt,value
2022-08-07T00:00:02.798Z,13.80
2022-08-07T00:01:12.868Z,13.70
2022-08-07T00:02:35.764Z,13.70
2022-08-07T00:03:03.265Z,13.70
2022-08-07T00:04:03.472Z,13.70
2022-08-07T00:05:04.103Z,13.70
2022-08-07T00:06:03.363Z,13.70
2022-08-07T00:07:04.992Z,13.60
2022-08-07T00:08:03.414Z,13.60
2022-08-07T00:09:07.890Z,13.60
2022-08-07T00:10:19.529Z,13.60
2022-08-07T00:11:03.518Z,13.60
2022-08-07T00:12:03.465Z,13.60
2022-08-07T00:13:09.803Z,13.60
2022-08-07T00:14:03.365Z,13.60
2022-08-07T00:15:03.498Z,13.60
2022-08-07T00:16:03.549Z,13.50
2022-08-07T00:17:03.559Z,13.50
2022-08-07T00:18:03.567Z,13.50
2022-08-07T00:19:03.617Z,13.50
2022-08-07T00:20:03.714Z,13.40
2022-08-07T00:21:08.088Z,13.40
2022-08-07T00:22:03.416Z,13.40
2022-08-07T00:23:02.970Z,13.40
2022-08-07T00:24:03.390Z,13.40
2022-08-07T00:25:03.472Z,13.40
2022-08-07T00:26:07.045Z,13.40
2022-08-07T00:27:06.599Z,13.30
2022-08-07T00:28:03.108Z,13.30
2022-08-07T00:29:03.158Z,13.30
2022-08-07T00:30:03.195Z,13.30
2022-08-07T00:31:04.488Z,13.30
2022-08-07T00:32:03.176Z,13.30
2022-08-07T00:33:03.192Z,13.20
2022-08-07T00:34:03.270Z,13.20
2022-08-07T00:35:03.471Z,13.20
2022-08-07T00:36:03.408Z,13.20
2022-08-07T00:37:04.858Z,13.20
2022-08-07T00:38:03.576Z,13.10
2022-08-07T00:39:03.510Z,13.10
2022-08-07T00:40:03.633Z,13.10
2022-08-07T00:41:03.550Z,13.10
2022-08-07T00:42:05.090Z,13.10
2022-08-07T00:43:03.663Z,13.00
2022-08-07T00:44:03.106Z,13.00
2022-08-07T00:45:06.751Z,13.00
2022-08-07T00:46:03.402Z,13.00
2022-08-07T00:47:03.330Z,13.00
2022-08-07T00:48:05.518Z,13.00
2022-08-07T00:49:03.637Z,13.00
2022-08-07T00:50:17.199Z,13.00
2022-08-07T00:51:03.270Z,13.00
2022-08-07T00:52:03.320Z,13.00
2022-08-07T00:53:03.343Z,13.00
2022-08-07T00:54:03.528Z,13.00
2022-08-07T00:55:04.507Z,12.90
2022-08-07T00:56:03.899Z,12.90
2022-08-07T00:57:03.494Z,12.90
2022-08-07T00:58:03.645Z,12.90
2022-08-07T00:59:03.576Z,12.90
2022-08-07T01:00:03.608Z,12.90
2022-08-07T01:01:02.753Z,12.90
2022-08-07T01:02:02.747Z,12.90
2022-08-07T01:03:02.627Z,12.90
2022-08-07T01:04:02.668Z,12.90
2022-08-07T01:05:02.688Z,12.90
2022-08-07T01:06:02.746Z,12.90
2022-08-07T01:07:02.684Z,12.80
2022-08-07T01:08:02.606Z,12.80
2022-08-07T01:09:02.776Z,12.80
2022-08-07T01:10:05.412Z,12.80
2022-08-07T01:11:10.761Z,12.80
2022-08-07T01:12:05.579Z,12.80
2022-08-07T01:13:03.579Z,12.80
2022-08-07T01:14:03.615Z,12.80
2022-08-07T01:15:04.112Z,12.80
2022-08-07T01:16:05.336Z,12.80
2022-08-07T01:17:04.149Z,12.70
2022-08-07T01:18:02.878Z,12.70
2022-08-07T01:19:02.788Z,12.70
2022-08-07T01:20:02.948Z,12.70
2022-08-07T01:21:02.935Z,12.70
2022-08-07T01:22:03.195Z,12.70
2022-08-07T01:23:09.153Z,12.70
2022-08-07T01:24:02.952Z,12.70
2022-08-07T01:25:05.219Z,12.60
2022-08-07T01:26:02.960Z,12.60
2022-08-07T01:27:02.978Z,12.60
2022-08-07T01:28:02.873Z,12.60
2022-08-07T01:29:02.979Z,12.60
2022-08-07T01:30:02.915Z,12.60
2022-08-07T01:31:02.971Z,12.60
2022-08-07T01:32:05.170Z,12.50
2022-08-07T01:33:02.986Z,12.50
2022-08-07T01:34:03.057Z,12.50
2022-08-07T01:35:03.083Z,12.50
2022-08-07T01:36:06.102Z,12.50
2022-08-07T01:37:03.082Z,12.50
2022-08-07T01:38:03.152Z,12.50
2022-08-07T01:39:04.219Z,12.50
2022-08-07T01:40:03.138Z,12.50
2022-08-07T01:41:03.086Z,12.40
2022-08-07T01:42:07.805Z,12.40
2022-08-07T01:43:03.323Z,12.40
2022-08-07T01:44:03.126Z,12.40
2022-08-07T01:45:03.091Z,12.40
2022-08-07T01:46:03.252Z,12.30
2022-08-07T01:47:14.704Z,12.30
2022-08-07T01:48:18.689Z,12.30
2022-08-07T01:49:03.479Z,12.30
2022-08-07T01:50:03.389Z,12.30
2022-08-07T01:51:08.149Z,12.30
2022-08-07T01:52:04.815Z,12.20
2022-08-07T01:53:08.720Z,12.20
2022-08-07T01:54:08.658Z,12.20
2022-08-07T01:55:03.776Z,12.20
2022-08-07T01:56:02.794Z,12.20
2022-08-07T01:57:02.617Z,12.20
2022-08-07T01:58:06.235Z,12.20
2022-08-07T01:59:02.592Z,12.20
2022-08-07T02:00:03.173Z,12.20
2022-08-07T02:01:10.447Z,12.20
2022-08-07T02:02:04.093Z,12.10
2022-08-07T02:03:12.796Z,12.20
2022-08-07T02:04:03.797Z,12.10
2022-08-07T02:05:04.785Z,12.10
2022-08-07T02:06:03.128Z,12.10
2022-08-07T02:07:03.166Z,12.10
2022-08-07T02:08:03.091Z,12.10
2022-08-07T02:09:03.554Z,12.10
2022-08-07T02:10:03.167Z,12.10
2022-08-07T02:11:03.440Z,12.10
2022-08-07T02:12:05.184Z,12.10
2022-08-07T02:13:03.274Z,12.10
2022-08-07T02:14:03.299Z,12.10
2022-08-07T02:15:05.942Z,12.00
2022-08-07T02:16:03.352Z,12.00
2022-08-07T02:17:03.540Z,12.00
2022-08-07T02:18:03.407Z,12.00
2022-08-07T02:19:05.460Z,12.00
2022-08-07T02:20:03.889Z,12.00
2022-08-07T02:21:06.252Z,11.90
2022-08-07T02:22:03.290Z,11.90
2022-08-07T02:23:03.399Z,11.90
2022-08-07T02:24:03.406Z,11.90
2022-08-07T02:25:07.068Z,11.90
2022-08-07T02:26:11.217Z,11.90
2022-08-07T02:27:03.481Z,11.90
2022-08-07T02:28:03.589Z,11.90
2022-08-07T02:29:02.648Z,11.80
2022-08-07T02:30:03.692Z,11.80
2022-08-07T02:31:10.400Z,11.80
2022-08-07T02:32:02.650Z,11.80
2022-08-07T02:33:04.055Z,11.80
2022-08-07T02:34:03.376Z,11.80
2022-08-07T02:35:02.594Z,11.80
2022-08-07T02:36:27.553Z,11.80
2022-08-07T02:37:02.681Z,11.80
2022-08-07T02:38:02.695Z,11.70
2022-08-07T02:39:02.740Z,11.70
2022-08-07T02:40:12.280Z,11.70
2022-08-07T02:41:03.676Z,11.70
2022-08-07T02:42:02.943Z,11.70
2022-08-07T02:43:07.725Z,11.60
2022-08-07T02:44:02.808Z,11.60
2022-08-07T02:45:07.192Z,11.60
2022-08-07T02:46:03.657Z,11.60
2022-08-07T02:47:03.186Z,11.60
2022-08-07T02:48:03.167Z,11.60
2022-08-07T02:49:03.386Z,11.60
2022-08-07T02:50:03.283Z,11.50
2022-08-07T02:51:03.193Z,11.50
2022-08-07T02:52:03.231Z,11.50
2022-08-07T02:53:03.755Z,11.50
2022-08-07T02:54:03.271Z,11.50
2022-08-07T02:55:03.671Z,11.50
2022-08-07T02:56:06.492Z,11.50
2022-08-07T02:57:03.414Z,11.50
2022-08-07T02:58:03.409Z,11.50
2022-08-07T02:59:03.503Z,11.50
2022-08-07T03:00:04.845Z,11.40
2022-08-07T03:01:03.581Z,11.40
2022-08-07T03:02:03.583Z,11.40
2022-08-07T03:03:05.936Z,11.40
2022-08-07T03:04:07.011Z,11.40
2022-08-07T03:05:04.832Z,11.40
2022-08-07T03:06:03.458Z,11.40
2022-08-07T03:07:07.180Z,11.40
2022-08-07T03:08:05.504Z,11.40
2022-08-07T03:09:03.382Z,11.40
2022-08-07T03:10:03.373Z,11.40
2022-08-07T03:11:03.514Z,11.30
2022-08-07T03:12:03.463Z,11.40
2022-08-07T03:13:03.446Z,11.30
2022-08-07T03:14:03.445Z,11.30
2022-08-07T03:15:07.415Z,11.30
2022-08-07T03:16:03.481Z,11.30
2022-08-07T03:17:04.502Z,11.30
2022-08-07T03:18:02.635Z,11.30
2022-08-07T03:19:03.640Z,11.30
2022-08-07T03:20:03.576Z,11.20
2022-08-07T03:21:03.633Z,11.20
2022-08-07T03:22:03.619Z,11.20
2022-08-07T03:23:03.598Z,11.20
2022-08-07T03:24:18.691Z,11.20
2022-08-07T03:25:02.788Z,11.10
2022-08-07T03:26:02.766Z,11.10
2022-08-07T03:27:03.028Z,11.10
2022-08-07T03:28:09.323Z,11.10
2022-08-07T03:29:03.267Z,11.10
2022-08-07T03:30:03.631Z,11.00
2022-08-07T03:31:03.412Z,11.00
2022-08-07T03:32:03.374Z,11.00
2022-08-07T03:33:03.402Z,11.00
2022-08-07T03:34:03.635Z,11.00
2022-08-07T03:35:17.241Z,11.00
2022-08-07T03:36:03.607Z,11.00
2022-08-07T03:37:12.028Z,11.00
2022-08-07T03:38:04.723Z,11.00
2022-08-07T03:39:05.386Z,11.00
2022-08-07T03:40:13.374Z,11.00
2022-08-07T03:41:03.337Z,11.00
2022-08-07T03:42:03.032Z,11.00
2022-08-07T03:43:02.937Z,11.00
2022-08-07T03:44:03.079Z,11.00
2022-08-07T03:45:03.124Z,11.00
2022-08-07T03:46:03.105Z,11.00
2022-08-07T03:47:11.636Z,11.00
2022-08-07T03:48:03.085Z,11.00
2022-08-07T03:49:03.464Z,11.00
2022-08-07T03:50:03.066Z,11.00
2022-08-07T03:51:03.226Z,11.00
2022-08-07T03:52:03.152Z,10.90
2022-08-07T03:53:03.249Z,11.00
2022-08-07T03:54:06.056Z,10.90
2022-08-07T03:55:06.409Z,10.90
2022-08-07T03:56:04.253Z,10.90
2022-08-07T03:57:03.831Z,10.90
2022-08-07T03:58:09.051Z,10.90
2022-08-07T03:59:07.621Z,10.90
2022-08-07T04:00:04.052Z,10.90
2022-08-07T04:01:03.512Z,10.90
2022-08-07T04:02:03.513Z,10.90
2022-08-07T04:03:04.767Z,10.90
2022-08-07T04:04:04.811Z,10.90
2022-08-07T04:05:02.754Z,10.80
2022-08-07T04:06:02.695Z,10.80
2022-08-07T04:07:02.727Z,10.80
2022-08-07T04:08:02.784Z,10.80
2022-08-07T04:09:02.870Z,10.80
2022-08-07T04:10:03.039Z,10.80
2022-08-07T04:11:14.923Z,10.80
2022-08-07T04:12:21.595Z,10.80
2022-08-07T04:13:03.599Z,10.80
2022-08-07T04:14:09.718Z,10.80
2022-08-07T04:15:05.039Z,10.90
2022-08-07T04:16:03.293Z,10.80
2022-08-07T04:17:03.259Z,10.90
2022-08-07T04:18:31.617Z,10.90
2022-08-07T04:19:04.023Z,10.90
2022-08-07T04:20:03.353Z,10.90
2022-08-07T04:21:03.411Z,10.90
2022-08-07T04:22:05.570Z,10.90
2022-08-07T04:23:06.174Z,10.90
2022-08-07T04:24:06.002Z,10.90
2022-08-07T04:25:03.306Z,10.90
2022-08-07T04:26:03.618Z,10.90
2022-08-07T04:27:03.478Z,10.90
2022-08-07T04:28:03.480Z,10.90
2022-08-07T04:29:03.566Z,10.90
2022-08-07T04:30:04.645Z,10.90
2022-08-07T04:31:02.645Z,10.90
2022-08-07T04:32:10.202Z,10.90
2022-08-07T04:33:02.755Z,10.90
2022-08-07T04:34:02.859Z,11.00
2022-08-07T04:35:03.853Z,11.00
2022-08-07T04:36:06.525Z,11.10
2022-08-07T04:37:02.985Z,11.20
2022-08-07T04:38:06.671Z,11.30
2022-08-07T04:39:03.119Z,11.40
2022-08-07T04:40:03.189Z,11.50
2022-08-07T04:41:03.126Z,11.70
2022-08-07T04:42:03.065Z,11.90
2022-08-07T04:43:03.161Z,12.10
2022-08-07T04:44:11.098Z,12.20
2022-08-07T04:45:07.968Z,12.40
2022-08-07T04:46:03.275Z,12.60
2022-08-07T04:47:05.152Z,12.80
2022-08-07T04:48:10.180Z,13.00
2022-08-07T04:49:02.683Z,13.20
2022-08-07T04:50:04.336Z,13.30
2022-08-07T04:51:03.408Z,13.50
2022-08-07T04:52:03.113Z,13.70
2022-08-07T04:53:03.237Z,13.90
2022-08-07T04:54:05.929Z,14.10
2022-08-07T04:55:14.753Z,14.30
2022-08-07T04:58:08.357Z,14.40
2022-08-07T04:58:08.825Z,14.70
2022-08-07T04:58:08.860Z,14.60
2022-08-07T04:59:18.758Z,14.90
2022-08-07T05:00:09.138Z,15.00
2022-08-07T05:01:03.048Z,15.20
2022-08-07T05:02:03.005Z,15.40
2022-08-07T05:03:03.102Z,15.50
2022-08-07T05:04:08.069Z,15.70
2022-08-07T05:05:03.133Z,15.80
2022-08-07T05:06:03.227Z,16.00
2022-08-07T05:07:09.759Z,16.10
2022-08-07T05:08:03.291Z,16.30
2022-08-07T05:09:03.267Z,16.40
2022-08-07T05:10:04.602Z,16.50
2022-08-07T05:11:03.376Z,16.70
2022-08-07T05:12:03.412Z,16.80
2022-08-07T05:13:10.205Z,17.00
2022-08-07T05:14:45.302Z,17.10
2022-08-07T05:15:03.632Z,17.20
2022-08-07T05:16:04.661Z,17.40
2022-08-07T05:17:05.837Z,17.50
2022-08-07T05:18:06.333Z,17.60
2022-08-07T05:19:03.029Z,17.70
2022-08-07T05:20:06.541Z,17.90
2022-08-07T05:21:03.938Z,18.00
2022-08-07T05:22:04.652Z,18.10
2022-08-07T05:23:03.136Z,18.20
2022-08-07T05:24:03.323Z,18.30
2022-08-07T05:25:03.236Z,18.40
2022-08-07T05:26:11.463Z,18.50
2022-08-07T05:27:03.242Z,18.70
2022-08-07T05:28:16.639Z,18.70
2022-08-07T05:29:04.153Z,18.80
2022-08-07T05:30:03.480Z,18.90
2022-08-07T05:31:03.537Z,19.00
2022-08-07T05:32:03.511Z,19.10
2022-08-07T05:33:03.213Z,19.20
2022-08-07T05:34:04.406Z,19.20
2022-08-07T05:35:02.721Z,19.30
2022-08-07T05:36:02.737Z,19.40
2022-08-07T05:37:02.701Z,19.40
2022-08-07T05:38:08.527Z,19.40
2022-08-07T05:39:16.028Z,19.50
2022-08-07T05:40:05.258Z,19.50
2022-08-07T05:41:05.357Z,19.50
2022-08-07T05:42:05.402Z,19.40
2022-08-07T05:43:03.092Z,19.50
2022-08-07T05:44:08.846Z,19.50
2022-08-07T05:45:04.654Z,19.60
2022-08-07T05:46:03.321Z,19.60
2022-08-07T05:47:11.858Z,19.70
2022-08-07T05:48:03.553Z,19.80
2022-08-07T05:49:08.977Z,19.90
2022-08-07T05:50:03.223Z,20.00
2022-08-07T05:51:03.452Z,20.10
2022-08-07T05:52:03.346Z,20.20
2022-08-07T05:53:04.102Z,20.30
2022-08-07T05:54:08.972Z,20.30
2022-08-07T05:55:10.232Z,20.40
2022-08-07T05:56:06.046Z,20.50
2022-08-07T05:57:03.586Z,20.60
2022-08-07T05:58:03.384Z,20.70
2022-08-07T05:59:03.579Z,20.80
2022-08-07T06:00:03.596Z,20.80
2022-08-07T06:01:04.908Z,20.90
2022-08-07T06:02:03.646Z,21.00
2022-08-07T06:03:03.657Z,21.00
2022-08-07T06:04:03.659Z,21.10
2022-08-07T06:05:03.457Z,21.10
2022-08-07T06:06:02.698Z,21.20
2022-08-07T06:07:03.527Z,21.30
2022-08-07T06:08:15.051Z,21.30
2022-08-07T06:09:04.296Z,21.40
2022-08-07T06:10:04.848Z,21.40
2022-08-07T06:11:03.858Z,21.40
2022-08-07T06:12:02.972Z,21.40
2022-08-07T06:13:03.141Z,21.50
2022-08-07T06:14:11.104Z,21.50
2022-08-07T06:15:03.045Z,21.50
2022-08-07T06:16:03.072Z,21.50
2022-08-07T06:17:07.006Z,21.50
2022-08-07T06:18:03.035Z,21.50
2022-08-07T06:19:03.222Z,21.50
2022-08-07T06:20:03.850Z,21.50
2022-08-07T06:22:12.227Z,21.60
2022-08-07T06:22:12.232Z,21.60
2022-08-07T06:23:09.451Z,21.70
2022-08-07T06:24:38.805Z,21.70
2022-08-07T06:25:03.456Z,21.80
2022-08-07T06:26:03.371Z,21.90
2022-08-07T06:27:03.633Z,22.00
2022-08-07T06:28:03.536Z,22.00
2022-08-07T06:29:03.442Z,22.00
2022-08-07T06:30:03.539Z,22.00
2022-08-07T06:31:02.678Z,22.10
2022-08-07T06:32:02.679Z,22.10
2022-08-07T06:33:03.598Z,22.20
2022-08-07T06:34:02.701Z,22.30
2022-08-07T06:35:02.715Z,22.30
2022-08-07T06:36:06.345Z,22.30
2022-08-07T06:37:02.885Z,22.40
2022-08-07T06:38:02.993Z,22.40
2022-08-07T06:40:13.896Z,22.50
2022-08-07T06:40:14.216Z,22.50
2022-08-07T06:41:02.913Z,22.60
2022-08-07T06:42:03.515Z,22.70
2022-08-07T06:43:02.840Z,22.70
2022-08-07T06:44:06.816Z,22.70
2022-08-07T06:45:02.871Z,22.80
2022-08-07T06:46:02.841Z,22.80
2022-08-07T06:47:10.707Z,22.80
2022-08-07T06:48:03.020Z,22.80
2022-08-07T06:49:03.815Z,22.90
2022-08-07T06:50:03.849Z,22.90
2022-08-07T06:51:08.096Z,23.00
2022-08-07T06:52:07.512Z,23.00
2022-08-07T06:53:04.064Z,23.10
2022-08-07T06:54:12.461Z,23.10
2022-08-07T06:55:30.447Z,23.10
2022-08-07T06:56:03.414Z,23.10
2022-08-07T06:57:03.650Z,23.20
2022-08-07T06:58:04.232Z,23.20
2022-08-07T07:00:10.720Z,23.30
2022-08-07T07:00:10.874Z,23.30
2022-08-07T07:01:03.022Z,23.30
2022-08-07T07:02:02.844Z,23.40
2022-08-07T07:03:08.994Z,23.40
2022-08-07T07:04:16.448Z,23.40
2022-08-07T07:05:02.899Z,23.40
2022-08-07T07:06:06.139Z,23.50
2022-08-07T07:07:10.549Z,23.50
2022-08-07T07:08:07.048Z,23.60
2022-08-07T07:09:02.762Z,23.60
2022-08-07T07:10:02.776Z,23.60
2022-08-07T07:11:07.702Z,23.70
2022-08-07T07:12:07.294Z,23.70
2022-08-07T07:13:02.819Z,23.80
2022-08-07T07:14:02.898Z,23.80
2022-08-07T07:15:03.371Z,23.80
2022-08-07T07:16:03.133Z,23.80
2022-08-07T07:17:03.039Z,23.90
2022-08-07T07:18:03.035Z,23.90
2022-08-07T07:19:04.019Z,23.90
2022-08-07T07:20:03.073Z,24.00
2022-08-07T07:21:03.965Z,24.00
2022-08-07T07:22:04.493Z,24.00
2022-08-07T07:24:06.786Z,24.00
2022-08-07T07:24:06.991Z,24.00
2022-08-07T07:25:14.326Z,24.00
2022-08-07T07:26:30.942Z,24.10
2022-08-07T07:27:03.635Z,24.10
2022-08-07T07:28:07.667Z,24.10
2022-08-07T07:29:38.798Z,24.10
2022-08-07T07:30:09.562Z,24.10
2022-08-07T07:31:03.120Z,24.10
2022-08-07T07:32:03.104Z,24.00
2022-08-07T07:33:03.184Z,24.00
2022-08-07T07:34:03.194Z,24.00
2022-08-07T07:35:03.929Z,24.10
2022-08-07T07:36:05.160Z,24.10
2022-08-07T07:37:05.355Z,24.10
2022-08-07T07:38:04.765Z,24.10
2022-08-07T07:39:02.721Z,24.10
2022-08-07T07:40:02.797Z,24.10
2022-08-07T07:41:02.829Z,24.20
2022-08-07T07:42:09.153Z,24.20
2022-08-07T07:43:11.545Z,24.20
2022-08-07T07:44:14.985Z,24.20
2022-08-07T07:45:08.187Z,24.20
2022-08-07T07:46:36.251Z,24.20
2022-08-07T07:47:13.615Z,24.20
2022-08-07T07:48:02.876Z,24.30
2022-08-07T07:49:09.068Z,24.30
2022-08-07T07:50:31.901Z,24.20
2022-08-07T07:51:03.174Z,24.20
2022-08-07T07:52:03.307Z,24.20
2022-08-07T07:53:03.116Z,24.20
2022-08-07T07:54:03.144Z,24.20
2022-08-07T07:55:03.290Z,24.20
2022-08-07T07:56:03.225Z,24.20
2022-08-07T07:57:03.194Z,24.20
2022-08-07T07:58:03.141Z,24.20
2022-08-07T07:59:03.297Z,24.20
2022-08-07T08:00:03.309Z,24.30
2022-08-07T08:02:00.723Z,24.30
2022-08-07T08:02:05.386Z,24.30
2022-08-07T08:03:05.153Z,24.30
2022-08-07T08:04:06.820Z,24.20
2022-08-07T08:05:03.517Z,24.20
2022-08-07T08:06:04.479Z,24.30
2022-08-07T08:07:06.806Z,24.20
2022-08-07T08:08:03.644Z,24.20
2022-08-07T08:09:03.635Z,24.20
2022-08-07T08:10:05.176Z,24.20
2022-08-07T08:11:02.605Z,24.10
2022-08-07T08:12:03.793Z,24.10
2022-08-07T08:13:03.649Z,24.10
2022-08-07T08:14:06.820Z,24.10
2022-08-07T08:15:06.952Z,24.10
2022-08-07T08:16:03.398Z,24.20
2022-08-07T08:17:14.074Z,24.20
2022-08-07T08:18:17.259Z,24.20
2022-08-07T08:19:10.021Z,24.20
2022-08-07T08:20:16.688Z,24.20
2022-08-07T08:21:02.829Z,24.20
2022-08-07T08:22:03.799Z,24.20
2022-08-07T08:23:02.927Z,24.20
2022-08-07T08:24:03.207Z,24.20
2022-08-07T08:25:04.973Z,24.20
2022-08-07T08:26:06.810Z,24.20
2022-08-07T08:27:05.902Z,24.10
2022-08-07T08:28:03.791Z,24.10
2022-08-07T08:29:03.234Z,24.10
2022-08-07T08:30:03.044Z,24.10
2022-08-07T08:31:02.965Z,24.10
2022-08-07T08:32:17.705Z,24.10
2022-08-07T08:33:03.115Z,24.10
2022-08-07T08:34:03.147Z,24.10
2022-08-07T08:35:03.061Z,24.10
2022-08-07T08:36:03.042Z,24.10
2022-08-07T08:37:03.051Z,24.10
2022-08-07T08:38:03.709Z,24.10
2022-08-07T08:39:03.210Z,24.10
2022-08-07T08:40:03.111Z,24.00
2022-08-07T08:41:03.179Z,24.00
2022-08-07T08:42:03.260Z,24.00
2022-08-07T08:43:03.378Z,24.00
2022-08-07T08:44:03.349Z,24.00
2022-08-07T08:45:04.125Z,24.00
2022-08-07T08:46:03.658Z,23.90
2022-08-07T08:47:03.546Z,23.90
2022-08-07T08:48:03.559Z,23.90
2022-08-07T08:49:02.661Z,23.90
2022-08-07T08:50:05.235Z,23.90
2022-08-07T08:51:03.341Z,23.90
2022-08-07T08:52:13.496Z,23.90
2022-08-07T08:53:02.827Z,23.90
2022-08-07T08:54:02.749Z,24.00
2022-08-07T08:55:03.532Z,24.00
2022-08-07T08:56:02.796Z,24.00
2022-08-07T08:57:02.962Z,24.00
2022-08-07T08:58:02.947Z,24.00
2022-08-07T08:59:06.605Z,24.00
2022-08-07T09:00:02.883Z,24.00
2022-08-07T09:01:14.936Z,24.00
2022-08-07T09:02:02.874Z,24.00
2022-08-07T09:03:03.900Z,24.00
2022-08-07T09:04:02.834Z,24.00
2022-08-07T09:05:02.905Z,24.00
2022-08-07T09:06:02.847Z,24.10
2022-08-07T09:07:03.267Z,24.10
2022-08-07T09:08:03.014Z,24.10
2022-08-07T09:09:03.066Z,24.10
2022-08-07T09:10:03.244Z,24.20
2022-08-07T09:11:03.101Z,24.20
2022-08-07T09:12:09.482Z,24.20
2022-08-07T09:13:03.035Z,24.20
2022-08-07T09:14:03.002Z,24.20
2022-08-07T09:16:20.861Z,24.20
2022-08-07T09:16:20.906Z,24.20
2022-08-07T09:17:03.188Z,24.20
2022-08-07T09:18:06.053Z,24.20
2022-08-07T09:19:03.647Z,24.20
2022-08-07T09:20:02.907Z,24.20
2022-08-07T09:21:02.850Z,24.10
2022-08-07T09:22:10.241Z,24.10
2022-08-07T09:24:29.656Z,24.10
2022-08-07T09:24:29.842Z,24.10
2022-08-07T09:25:07.240Z,24.10
2022-08-07T09:26:03.073Z,24.10
2022-08-07T09:27:04.757Z,24.10
2022-08-07T09:28:03.206Z,24.10
2022-08-07T09:29:24.573Z,24.00
2022-08-07T09:30:08.137Z,24.00
2022-08-07T09:31:03.328Z,24.00
2022-08-07T09:32:03.277Z,24.00
2022-08-07T09:33:05.184Z,24.00
2022-08-07T09:34:03.663Z,24.00
2022-08-07T09:35:04.497Z,24.10
2022-08-07T09:36:06.269Z,24.10
2022-08-07T09:37:03.700Z,24.10
2022-08-07T09:38:03.794Z,24.10
2022-08-07T09:39:06.392Z,24.10
2022-08-07T09:40:03.021Z,24.20
2022-08-07T09:41:03.498Z,24.20
2022-08-07T09:42:04.170Z,24.20
2022-08-07T09:43:03.128Z,24.30
2022-08-07T09:44:06.342Z,24.30
2022-08-07T09:46:11.273Z,24.30
2022-08-07T09:47:26.525Z,24.30
2022-08-07T09:47:27.116Z,24.30
2022-08-07T09:48:07.488Z,24.30
2022-08-07T09:49:59.881Z,24.30
2022-08-07T09:50:18.391Z,24.30
2022-08-07T09:51:02.821Z,24.30
2022-08-07T09:52:11.089Z,24.30
2022-08-07T09:53:02.850Z,24.30
2022-08-07T09:54:03.374Z,24.30
2022-08-07T09:55:02.927Z,24.30
2022-08-07T09:56:04.786Z,24.30
2022-08-07T09:57:02.968Z,24.30
2022-08-07T09:58:02.928Z,24.40
2022-08-07T09:59:07.496Z,24.40
2022-08-07T10:00:02.957Z,24.40
2022-08-07T10:01:02.910Z,24.40
2022-08-07T10:02:02.930Z,24.40
2022-08-07T10:03:07.976Z,24.40
2022-08-07T10:04:12.161Z,24.40
2022-08-07T10:05:12.071Z,24.40
2022-08-07T10:06:05.485Z,24.40
2022-08-07T10:07:03.030Z,24.40
2022-08-07T10:08:03.220Z,24.40
2022-08-07T10:09:03.049Z,24.40
2022-08-07T10:10:03.366Z,24.50
2022-08-07T10:11:16.608Z,24.50
2022-08-07T10:12:11.923Z,24.40
2022-08-07T10:13:03.641Z,24.40
2022-08-07T10:14:03.245Z,24.40
2022-08-07T10:15:03.183Z,24.40
2022-08-07T10:16:03.155Z,24.40
2022-08-07T10:17:03.226Z,24.50
2022-08-07T10:18:03.763Z,24.50
2022-08-07T10:19:03.347Z,24.60
2022-08-07T10:20:03.260Z,24.60
2022-08-07T10:21:03.209Z,24.60
2022-08-07T10:22:15.225Z,24.60
2022-08-07T10:23:03.240Z,24.70
2022-08-07T10:24:04.429Z,24.70
2022-08-07T10:25:03.056Z,24.70
2022-08-07T10:26:03.207Z,24.70
2022-08-07T10:27:06.622Z,24.70
2022-08-07T10:28:03.366Z,24.80
2022-08-07T10:29:03.322Z,24.80
2022-08-07T10:30:03.344Z,24.80
2022-08-07T10:31:05.982Z,24.80
2022-08-07T10:32:03.381Z,24.90
2022-08-07T10:33:03.289Z,24.90
2022-08-07T10:34:05.260Z,25.00
2022-08-07T10:35:03.365Z,25.00
2022-08-07T10:36:05.407Z,25.10
2022-08-07T10:37:03.864Z,25.10
2022-08-07T10:38:21.401Z,25.10
2022-08-07T10:39:04.486Z,25.10
2022-08-07T10:40:05.832Z,25.20
2022-08-07T10:41:03.233Z,25.20
2022-08-07T10:42:09.587Z,25.20
2022-08-07T10:43:03.405Z,25.30
2022-08-07T10:44:07.752Z,25.30
2022-08-07T10:45:03.477Z,25.30
2022-08-07T10:46:03.516Z,25.30
2022-08-07T10:47:03.470Z,25.30
2022-08-07T10:48:04.020Z,25.30
2022-08-07T10:49:03.455Z,25.30
2022-08-07T10:50:03.552Z,25.30
2022-08-07T10:51:03.952Z,25.30
2022-08-07T10:52:13.053Z,25.20
2022-08-07T10:53:05.346Z,25.20
2022-08-07T10:54:03.642Z,25.20
2022-08-07T10:55:21.119Z,25.20
2022-08-07T10:56:03.599Z,25.10
2022-08-07T10:57:02.719Z,25.10
2022-08-07T10:58:03.693Z,25.10
2022-08-07T10:59:03.625Z,25.10
2022-08-07T11:00:02.674Z,25.10
2022-08-07T11:01:02.851Z,25.10
2022-08-07T11:02:05.170Z,25.10
2022-08-07T11:03:02.831Z,25.10
2022-08-07T11:04:16.866Z,25.20
2022-08-07T11:05:05.432Z,25.20
2022-08-07T11:06:02.914Z,25.30
2022-08-07T11:07:03.094Z,25.30
2022-08-07T11:08:03.048Z,25.30
2022-08-07T11:09:03.106Z,25.30
2022-08-07T11:10:08.120Z,25.30
2022-08-07T11:11:03.268Z,25.30
2022-08-07T11:12:03.300Z,25.30
2022-08-07T11:13:03.227Z,25.30
2022-08-07T11:14:46.639Z,25.20
2022-08-07T11:15:03.680Z,25.20
2022-08-07T11:16:03.303Z,25.20
2022-08-07T11:17:07.162Z,25.20
2022-08-07T11:18:04.525Z,25.20
2022-08-07T11:19:03.503Z,25.20
2022-08-07T11:20:03.622Z,25.20
2022-08-07T11:21:03.504Z,25.10
2022-08-07T11:22:03.480Z,25.10
2022-08-07T11:23:03.665Z,25.10
2022-08-07T11:24:03.650Z,25.10
2022-08-07T11:25:06.421Z,25.20
2022-08-07T11:26:06.123Z,25.20
2022-08-07T11:27:02.772Z,25.20
2022-08-07T11:28:04.268Z,25.20
2022-08-07T11:29:05.561Z,25.20
2022-08-07T11:30:10.313Z,25.20
2022-08-07T11:31:03.261Z,25.20
2022-08-07T11:32:03.262Z,25.10
2022-08-07T11:33:07.850Z,25.20
2022-08-07T11:34:03.360Z,25.20
2022-08-07T11:35:03.554Z,25.10
2022-08-07T11:36:06.902Z,25.10
2022-08-07T11:37:03.524Z,25.10
2022-08-07T11:38:10.636Z,25.10
2022-08-07T11:39:03.972Z,25.10
2022-08-07T11:40:03.648Z,25.10
2022-08-07T11:41:03.258Z,25.10
2022-08-07T11:42:03.398Z,25.10
2022-08-07T11:43:03.027Z,25.10
2022-08-07T11:44:11.536Z,25.10
2022-08-07T11:45:03.487Z,25.10
2022-08-07T11:46:03.173Z,25.20
2022-08-07T11:47:03.440Z,25.20
2022-08-07T11:48:05.036Z,25.20
2022-08-07T11:49:28.829Z,25.20
2022-08-07T11:50:25.674Z,25.20
2022-08-07T11:51:03.580Z,25.20
2022-08-07T11:52:03.625Z,25.20
2022-08-07T11:53:05.093Z,25.20
2022-08-07T11:54:03.717Z,25.10
2022-08-07T11:55:02.742Z,25.10
2022-08-07T11:56:08.767Z,25.20
2022-08-07T11:57:02.845Z,25.20
2022-08-07T11:58:02.915Z,25.20
2022-08-07T11:59:02.891Z,25.20
2022-08-07T12:00:09.106Z,25.20
2022-08-07T12:01:04.255Z,25.20
2022-08-07T12:02:02.851Z,25.30
2022-08-07T12:03:02.961Z,25.30
2022-08-07T12:04:02.849Z,25.30
2022-08-07T12:05:02.939Z,25.30
2022-08-07T12:06:03.018Z,25.20
2022-08-07T12:07:08.910Z,25.20
2022-08-07T12:08:03.927Z,25.20
2022-08-07T12:09:02.700Z,25.20
2022-08-07T12:10:02.717Z,25.20
2022-08-07T12:11:07.995Z,25.30
2022-08-07T12:12:09.841Z,25.30
2022-08-07T12:13:02.697Z,25.30
2022-08-07T12:14:02.756Z,25.30
2022-08-07T12:15:02.780Z,25.30
2022-08-07T12:16:06.490Z,25.20
2022-08-07T12:17:02.903Z,25.20
2022-08-07T12:18:03.201Z,25.20
2022-08-07T12:19:02.824Z,25.10
2022-08-07T12:20:07.119Z,25.10
2022-08-07T12:21:02.932Z,25.20
2022-08-07T12:22:38.247Z,25.20
2022-08-07T12:23:02.109Z,25.20
2022-08-07T12:24:05.201Z,25.20
2022-08-07T12:25:07.623Z,25.30
2022-08-07T12:26:23.795Z,25.30
2022-08-07T12:27:03.474Z,25.30
2022-08-07T12:28:05.898Z,25.30
2022-08-07T12:29:03.693Z,25.30
2022-08-07T12:30:03.590Z,25.30
2022-08-07T12:31:03.593Z,25.30
2022-08-07T12:32:04.456Z,25.30
2022-08-07T12:33:02.695Z,25.30
2022-08-07T12:34:04.031Z,25.30
2022-08-07T12:35:02.694Z,25.30
2022-08-07T12:36:02.859Z,25.30
2022-08-07T12:37:08.098Z,25.30
2022-08-07T12:38:10.403Z,25.40
2022-08-07T12:39:02.872Z,25.40
2022-08-07T12:40:03.636Z,25.50
2022-08-07T12:41:02.660Z,25.50
2022-08-07T12:42:02.719Z,25.60
2022-08-07T12:43:02.882Z,25.50
2022-08-07T12:44:05.162Z,25.60
2022-08-07T12:45:04.262Z,25.60
2022-08-07T12:46:02.910Z,25.60
2022-08-07T12:47:03.079Z,25.60
2022-08-07T12:48:02.932Z,25.60
2022-08-07T12:49:09.705Z,25.50
2022-08-07T12:50:04.423Z,25.60
2022-08-07T12:51:13.044Z,25.50
2022-08-07T12:52:12.592Z,25.50